Home   Weather   France   Dijon   Past weeks
Flag for France

Past Weather in Dijon, Bourgogne-Franche-Comté, France — Yesterday and Last 2 Weeks

Currently: 55 °F. Sunny. (Weather station: Dijon Airport, France). See more current weather

Past Weather in Dijon — Graph

°F

Dijon Temperature Yesterday

Maximum temperature yesterday: 66 °F (at 3:00 pm)
Minimum temperature yesterday: 52 °F (at 11:30 pm)
Average temperature yesterday: 59 °F

High & Low Weather Summary for the Past Weeks

 TemperatureHumidityPressure
High79 °F (May 11, 4:00 pm)100% (May 12, 6:00 am)30.27 "Hg (May 12, 6:00 am)
Low46 °F (May 24, 4:00 am)43% (May 17, 6:00 pm)29.68 "Hg (May 15, 4:00 pm)
Average60 °F79%29.90 "Hg
* Reported May 9 9:00 am — May 24 9:00 am, Dijon. Weather by CustomWeather, © 2024

Note: Actual official high and low records may vary slightly from our data, if they occured in-between our weather recording intervals... More about our weather records

Dijon Weather History for the Previous 24 Hours

Scroll right to see more
 ConditionsComfort  
Time TempWeatherWind HumidityBarometerVisibility
9:00 am
Fri, May 24
54 °FLow clouds.No wind94%30.09 "HgN/A
8:30 am52 °FSunny.No wind94%30.09 "Hg10 mi
8:00 am50 °FSunny.3 mph100%30.09 "Hg10 mi
7:30 am50 °FOvercast.2 mph94%30.09 "HgN/A
7:00 am48 °FBroken clouds.2 mph94%30.09 "HgN/A
6:30 am46 °FSunny.2 mph100%30.07 "Hg10 mi
6:00 am48 °FSunny.3 mph94%30.07 "Hg10 mi
5:30 am46 °FClear.2 mph100%30.07 "Hg10 mi
5:00 am46 °FPassing clouds.5 mph100%30.07 "HgN/A
4:30 am46 °FClear.3 mph100%30.07 "Hg10 mi
4:00 am46 °FClear.3 mph93%30.07 "Hg10 mi
3:00 am48 °FClear.2 mph94%30.07 "Hg10 mi
2:30 am48 °FFog.1 mph94%30.07 "HgN/A
2:00 am50 °FClear.3 mph94%30.07 "Hg10 mi
1:30 am50 °FClear.3 mph94%30.07 "Hg10 mi
1:00 am50 °FClear.3 mph100%30.07 "Hg10 mi
12:30 am52 °FClear.2 mph94%30.07 "Hg10 mi
12:00 am52 °FClear.2 mph88%30.07 "Hg10 mi
11:30 pm
Thu, May 23
52 °FClear.2 mph94%30.07 "Hg10 mi
11:00 pm54 °FClear.3 mph88%30.07 "Hg10 mi
10:30 pm54 °FClear.2 mph94%30.09 "Hg10 mi
10:00 pm55 °FClear.2 mph82%30.07 "Hg10 mi
9:30 pm57 °FClear.2 mph77%30.07 "Hg10 mi
9:00 pm59 °FSunny.1 mph72%30.07 "Hg10 mi
8:30 pm61 °FSunny.No wind68%30.04 "Hg10 mi
8:00 pm61 °FPassing clouds.3 mph68%30.04 "HgN/A
7:30 pm63 °FPassing clouds.5 mph64%30.04 "HgN/A
7:00 pm61 °FPassing clouds.7 mph68%30.04 "HgN/A
6:30 pm63 °FMild.10 mph64%30.04 "HgN/A
6:00 pm63 °FMild.12 mph64%30.04 "HgN/A
5:30 pm63 °FMild.14 mph64%30.04 "HgN/A
5:00 pm64 °FMild.13 mph60%30.04 "HgN/A
4:30 pm66 °FPartly sunny.14 mph64%30.04 "HgN/A
4:00 pm66 °FMild.3 mph60%30.04 "HgN/A
3:00 pm66 °FSunny.2 mph60%30.04 "Hg10 mi
2:30 pm64 °FMild.3 mph64%30.04 "HgN/A
2:00 pm63 °FScattered clouds.5 mph73%30.04 "HgN/A
1:00 pm57 °FLight rain. Mostly cloudy.6 mph88%30.07 "HgN/A
12:30 pm59 °FLight rain. Cloudy.7 mph82%30.07 "HgN/A
12:00 pm61 °FPartly sunny.5 mph77%30.07 "HgN/A
11:30 am61 °FPartly sunny.8 mph77%30.04 "HgN/A
11:00 am61 °FMore clouds than sun.6 mph77%30.04 "HgN/A
10:30 am61 °FMostly cloudy.5 mph72%30.04 "HgN/A
10:00 am61 °FPartly sunny.7 mph77%30.04 "HgN/A
Weather by CustomWeather, © 2024

See weather overview